sensor_id;sensor_type;location;lat;lon;timestamp;temperature;humidity
65637;DHT22;52327;42.622;23.316;2023-02-11T00:02:14;-5.14;86.38
65637;DHT22;52327;42.622;23.316;2023-02-11T00:04:45;-4.96;85.38
65637;DHT22;52327;42.622;23.316;2023-02-11T00:07:44;-5.04;83.62
65637;DHT22;52327;42.622;23.316;2023-02-11T00:17:12;-5.27;82.76
65637;DHT22;52327;42.622;23.316;2023-02-11T00:26:51;-5.47;83.94
65637;DHT22;52327;42.622;23.316;2023-02-11T00:30:02;-5.56;84.66
65637;DHT22;52327;42.622;23.316;2023-02-11T00:36:59;-5.75;84.28
65637;DHT22;52327;42.622;23.316;2023-02-11T00:40:00;-5.83;85.02
65637;DHT22;52327;42.622;23.316;2023-02-11T00:45:58;-5.75;83.18
65637;DHT22;52327;42.622;23.316;2023-02-11T00:52:19;-5.82;84.73
65637;DHT22;52327;42.622;23.316;2023-02-11T00:55:24;-5.86;84.66
65637;DHT22;52327;42.622;23.316;2023-02-11T00:57:49;-5.86;83.98
65637;DHT22;52327;42.622;23.316;2023-02-11T01:00:20;-5.86;83.92
65637;DHT22;52327;42.622;23.316;2023-02-11T01:03:00;-5.92;84.54
65637;DHT22;52327;42.622;23.316;2023-02-11T01:09:15;-5.95;84.69
65637;DHT22;52327;42.622;23.316;2023-02-11T01:11:41;-5.96;85.13
65637;DHT22;52327;42.622;23.316;2023-02-11T01:14:12;-6.02;84.17
65637;DHT22;52327;42.622;23.316;2023-02-11T01:16:48;-6.09;84.16
65637;DHT22;52327;42.622;23.316;2023-02-11T01:19:16;-6.05;84.48
65637;DHT22;52327;42.622;23.316;2023-02-11T01:21:42;-6.09;84.28
65637;DHT22;52327;42.622;23.316;2023-02-11T01:24:07;-6.13;84.16
65637;DHT22;52327;42.622;23.316;2023-02-11T01:26:33;-6.11;84.91
65637;DHT22;52327;42.622;23.316;2023-02-11T01:29:02;-6.10;85.27
65637;DHT22;52327;42.622;23.316;2023-02-11T01:31:29;-6.03;85.93
65637;DHT22;52327;42.622;23.316;2023-02-11T01:33:55;-6.07;85.11
65637;DHT22;52327;42.622;23.316;2023-02-11T01:36:20;-6.06;83.85
65637;DHT22;52327;42.622;23.316;2023-02-11T01:38:46;-6.10;83.32
65637;DHT22;52327;42.622;23.316;2023-02-11T01:41:12;-6.16;82.56
65637;DHT22;52327;42.622;23.316;2023-02-11T01:43:45;-6.07;82.10
65637;DHT22;52327;42.622;23.316;2023-02-11T01:46:33;-6.10;82.75
65637;DHT22;52327;42.622;23.316;2023-02-11T01:49:08;-6.14;81.76
65637;DHT22;52327;42.622;23.316;2023-02-11T01:51:42;-6.21;83.68
65637;DHT22;52327;42.622;23.316;2023-02-11T01:54:14;-6.26;84.05
65637;DHT22;52327;42.622;23.316;2023-02-11T01:57:06;-6.33;84.22
65637;DHT22;52327;42.622;23.316;2023-02-11T02:00:16;-6.36;83.53
65637;DHT22;52327;42.622;23.316;2023-02-11T02:02:51;-6.40;84.55
65637;DHT22;52327;42.622;23.316;2023-02-11T02:08:33;-6.34;83.38
65637;DHT22;52327;42.622;23.316;2023-02-11T02:11:07;-6.42;84.04
65637;DHT22;52327;42.622;23.316;2023-02-11T02:13:33;-6.40;83.62
65637;DHT22;52327;42.622;23.316;2023-02-11T02:16:11;-6.48;83.07
65637;DHT22;52327;42.622;23.316;2023-02-11T02:19:13;-6.47;83.99
65637;DHT22;52327;42.622;23.316;2023-02-11T02:38:29;-6.67;84.08
65637;DHT22;52327;42.622;23.316;2023-02-11T02:40:57;-6.65;83.29
65637;DHT22;52327;42.622;23.316;2023-02-11T02:43:25;-6.67;83.40
65637;DHT22;52327;42.622;23.316;2023-02-11T02:45:51;-6.68;81.97
65637;DHT22;52327;42.622;23.316;2023-02-11T02:48:34;-6.74;84.04
65637;DHT22;52327;42.622;23.316;2023-02-11T03:07:05;-6.71;83.67
65637;DHT22;52327;42.622;23.316;2023-02-11T03:09:55;-6.71;83.53
65637;DHT22;52327;42.622;23.316;2023-02-11T03:12:22;-6.71;82.23
65637;DHT22;52327;42.622;23.316;2023-02-11T03:14:50;-6.77;83.49
65637;DHT22;52327;42.622;23.316;2023-02-11T03:17:17;-6.77;83.18
65637;DHT22;52327;42.622;23.316;2023-02-11T03:19:45;-6.75;81.35
65637;DHT22;52327;42.622;23.316;2023-02-11T03:22:17;-6.78;83.70
65637;DHT22;52327;42.622;23.316;2023-02-11T03:24:49;-6.77;83.49
65637;DHT22;52327;42.622;23.316;2023-02-11T03:29:54;-6.67;84.01
65637;DHT22;52327;42.622;23.316;2023-02-11T03:32:28;-6.61;84.43
65637;DHT22;52327;42.622;23.316;2023-02-11T03:35:06;-6.54;84.80
65637;DHT22;52327;42.622;23.316;2023-02-11T03:37:57;-6.55;83.95
65637;DHT22;52327;42.622;23.316;2023-02-11T03:40:26;-6.57;82.17
65637;DHT22;52327;42.622;23.316;2023-02-11T03:43:06;-6.71;81.72
65637;DHT22;52327;42.622;23.316;2023-02-11T03:45:32;-6.70;84.30
65637;DHT22;52327;42.622;23.316;2023-02-11T03:48:03;-6.64;83.53
65637;DHT22;52327;42.622;23.316;2023-02-11T03:50:31;-6.65;83.02
65637;DHT22;52327;42.622;23.316;2023-02-11T03:53:00;-6.74;83.12
65637;DHT22;52327;42.622;23.316;2023-02-11T03:55:27;-6.81;82.82
65637;DHT22;52327;42.622;23.316;2023-02-11T03:57:53;-6.81;84.04
65637;DHT22;52327;42.622;23.316;2023-02-11T04:00:19;-6.91;83.70
65637;DHT22;52327;42.622;23.316;2023-02-11T04:02:44;-6.71;82.67
65637;DHT22;52327;42.622;23.316;2023-02-11T04:05:13;-6.68;84.25
65637;DHT22;52327;42.622;23.316;2023-02-11T04:07:38;-6.74;83.91
65637;DHT22;52327;42.622;23.316;2023-02-11T04:10:04;-6.81;83.55
65637;DHT22;52327;42.622;23.316;2023-02-11T04:12:30;-6.91;84.45
65637;DHT22;52327;42.622;23.316;2023-02-11T04:14:55;-6.91;84.37
65637;DHT22;52327;42.622;23.316;2023-02-11T04:17:21;-6.93;83.98
65637;DHT22;52327;42.622;23.316;2023-02-11T04:19:46;-6.79;84.42
65637;DHT22;52327;42.622;23.316;2023-02-11T04:22:12;-6.89;83.39
65637;DHT22;52327;42.622;23.316;2023-02-11T04:24:38;-6.95;79.72
65637;DHT22;52327;42.622;23.316;2023-02-11T04:27:03;-7.03;83.62
65637;DHT22;52327;42.622;23.316;2023-02-11T04:29:28;-6.92;82.47
65637;DHT22;52327;42.622;23.316;2023-02-11T04:31:54;-6.92;82.75
65637;DHT22;52327;42.622;23.316;2023-02-11T04:34:19;-6.98;83.12
65637;DHT22;52327;42.622;23.316;2023-02-11T04:36:45;-7.02;83.45
65637;DHT22;52327;42.622;23.316;2023-02-11T04:39:10;-7.06;83.65
65637;DHT22;52327;42.622;23.316;2023-02-11T04:41:36;-7.09;84.45
65637;DHT22;52327;42.622;23.316;2023-02-11T04:44:01;-7.16;84.11
65637;DHT22;52327;42.622;23.316;2023-02-11T04:46:27;-7.11;83.03
65637;DHT22;52327;42.622;23.316;2023-02-11T04:48:52;-7.13;83.30
65637;DHT22;52327;42.622;23.316;2023-02-11T04:51:17;-7.08;83.82
65637;DHT22;52327;42.622;23.316;2023-02-11T04:53:43;-7.13;84.30
65637;DHT22;52327;42.622;23.316;2023-02-11T04:56:09;-7.01;83.61
65637;DHT22;52327;42.622;23.316;2023-02-11T04:58:34;-7.01;83.08
65637;DHT22;52327;42.622;23.316;2023-02-11T05:01:10;-7.15;82.68
65637;DHT22;52327;42.622;23.316;2023-02-11T05:03:36;-7.03;83.49
65637;DHT22;52327;42.622;23.316;2023-02-11T05:06:02;-6.95;82.75
65637;DHT22;52327;42.622;23.316;2023-02-11T05:08:28;-6.89;82.25
65637;DHT22;52327;42.622;23.316;2023-02-11T05:10:54;-6.92;82.20
65637;DHT22;52327;42.622;23.316;2023-02-11T05:13:19;-7.01;83.58
65637;DHT22;52327;42.622;23.316;2023-02-11T05:15:44;-7.05;83.57
65637;DHT22;52327;42.622;23.316;2023-02-11T05:18:10;-7.09;83.86
65637;DHT22;52327;42.622;23.316;2023-02-11T05:20:39;-7.13;83.55
65637;DHT22;52327;42.622;23.316;2023-02-11T05:23:04;-7.08;83.20
65637;DHT22;52327;42.622;23.316;2023-02-11T05:25:30;-7.12;83.63
65637;DHT22;52327;42.622;23.316;2023-02-11T05:27:55;-7.20;83.31
65637;DHT22;52327;42.622;23.316;2023-02-11T05:30:21;-7.24;83.50
65637;DHT22;52327;42.622;23.316;2023-02-11T05:32:46;-7.27;83.03
65637;DHT22;52327;42.622;23.316;2023-02-11T05:35:12;-7.24;84.08
65637;DHT22;52327;42.622;23.316;2023-02-11T05:37:38;-7.22;83.55
65637;DHT22;52327;42.622;23.316;2023-02-11T05:40:04;-7.19;82.47
65637;DHT22;52327;42.622;23.316;2023-02-11T05:42:30;-7.22;84.01
65637;DHT22;52327;42.622;23.316;2023-02-11T05:44:55;-7.23;84.25
65637;DHT22;52327;42.622;23.316;2023-02-11T05:47:21;-7.18;84.14
65637;DHT22;52327;42.622;23.316;2023-02-11T05:49:46;-7.12;83.93
65637;DHT22;52327;42.622;23.316;2023-02-11T05:52:12;-7.01;84.36
65637;DHT22;52327;42.622;23.316;2023-02-11T05:54:37;-6.92;84.80
65637;DHT22;52327;42.622;23.316;2023-02-11T05:57:03;-6.72;84.47
65637;DHT22;52327;42.622;23.316;2023-02-11T05:59:28;-6.58;84.42
65637;DHT22;52327;42.622;23.316;2023-02-11T06:01:53;-6.55;84.69
65637;DHT22;52327;42.622;23.316;2023-02-11T06:04:19;-6.33;83.25
65637;DHT22;52327;42.622;23.316;2023-02-11T06:06:44;-6.23;82.15
65637;DHT22;52327;42.622;23.316;2023-02-11T06:09:10;-6.31;83.72
65637;DHT22;52327;42.622;23.316;2023-02-11T06:11:36;-6.33;83.98
65637;DHT22;52327;42.622;23.316;2023-02-11T06:14:02;-6.31;83.45
65637;DHT22;52327;42.622;23.316;2023-02-11T06:16:27;-6.21;84.21
65637;DHT22;52327;42.622;23.316;2023-02-11T06:18:53;-5.97;84.04
65637;DHT22;52327;42.622;23.316;2023-02-11T06:21:18;-5.90;84.27
65637;DHT22;52327;42.622;23.316;2023-02-11T06:23:43;-5.75;84.08
65637;DHT22;52327;42.622;23.316;2023-02-11T06:26:17;-5.72;84.54
65637;DHT22;52327;42.622;23.316;2023-02-11T06:28:42;-5.69;85.02
65637;DHT22;52327;42.622;23.316;2023-02-11T06:31:08;-5.59;84.05
65637;DHT22;52327;42.622;23.316;2023-02-11T06:33:34;-5.56;84.78
65637;DHT22;52327;42.622;23.316;2023-02-11T06:36:00;-5.52;84.64
65637;DHT22;52327;42.622;23.316;2023-02-11T06:38:26;-5.44;85.07
65637;DHT22;52327;42.622;23.316;2023-02-11T06:40:51;-5.32;85.04
65637;DHT22;52327;42.622;23.316;2023-02-11T06:43:17;-5.32;85.28
65637;DHT22;52327;42.622;23.316;2023-02-11T06:45:42;-5.15;85.99
65637;DHT22;52327;42.622;23.316;2023-02-11T06:48:08;-5.10;84.21
65637;DHT22;52327;42.622;23.316;2023-02-11T06:50:33;-5.13;84.13
65637;DHT22;52327;42.622;23.316;2023-02-11T06:52:59;-4.94;83.33
65637;DHT22;52327;42.622;23.316;2023-02-11T06:55:24;-4.82;84.73
65637;DHT22;52327;42.622;23.316;2023-02-11T06:57:50;-4.82;82.85
65637;DHT22;52327;42.622;23.316;2023-02-11T07:00:16;-4.72;84.97
65637;DHT22;52327;42.622;23.316;2023-02-11T07:02:41;-4.53;84.08
65637;DHT22;52327;42.622;23.316;2023-02-11T07:05:07;-4.45;83.81
65637;DHT22;52327;42.622;23.316;2023-02-11T07:07:33;-4.51;84.23
65637;DHT22;52327;42.622;23.316;2023-02-11T07:09:58;-4.48;84.66
65637;DHT22;52327;42.622;23.316;2023-02-11T07:12:23;-4.62;82.89
65637;DHT22;52327;42.622;23.316;2023-02-11T07:14:49;-4.72;85.05
65637;DHT22;52327;42.622;23.316;2023-02-11T07:17:14;-4.58;85.48
65637;DHT22;52327;42.622;23.316;2023-02-11T07:19:40;-4.49;85.37
65637;DHT22;52327;42.622;23.316;2023-02-11T07:22:05;-4.33;84.58
65637;DHT22;52327;42.622;23.316;2023-02-11T07:24:31;-4.26;85.51
65637;DHT22;52327;42.622;23.316;2023-02-11T07:26:56;-4.15;83.32
65637;DHT22;52327;42.622;23.316;2023-02-11T07:29:21;-4.24;83.81
65637;DHT22;52327;42.622;23.316;2023-02-11T07:31:47;-4.14;85.59
65637;DHT22;52327;42.622;23.316;2023-02-11T07:34:12;-3.91;84.50
65637;DHT22;52327;42.622;23.316;2023-02-11T07:36:38;-3.83;84.62
65637;DHT22;52327;42.622;23.316;2023-02-11T07:39:03;-3.66;84.20
65637;DHT22;52327;42.622;23.316;2023-02-11T07:41:28;-3.70;83.17
65637;DHT22;52327;42.622;23.316;2023-02-11T07:43:54;-3.71;84.63
65637;DHT22;52327;42.622;23.316;2023-02-11T07:46:23;-3.63;84.79
65637;DHT22;52327;42.622;23.316;2023-02-11T07:48:48;-3.40;83.25
65637;DHT22;52327;42.622;23.316;2023-02-11T07:51:17;-3.38;83.81
65637;DHT22;52327;42.622;23.316;2023-02-11T07:53:43;-3.32;84.34
65637;DHT22;52327;42.622;23.316;2023-02-11T07:56:10;-3.31;84.56
65637;DHT22;52327;42.622;23.316;2023-02-11T07:58:36;-3.16;84.23
65637;DHT22;52327;42.622;23.316;2023-02-11T08:01:04;-3.09;82.45
65637;DHT22;52327;42.622;23.316;2023-02-11T08:03:30;-3.20;84.26
65637;DHT22;52327;42.622;23.316;2023-02-11T08:05:56;-3.11;83.22
65637;DHT22;52327;42.622;23.316;2023-02-11T08:08:22;-3.28;82.47
65637;DHT22;52327;42.622;23.316;2023-02-11T08:10:49;-3.22;83.67
65637;DHT22;52327;42.622;23.316;2023-02-11T08:13:15;-3.28;82.74
65637;DHT22;52327;42.622;23.316;2023-02-11T08:15:40;-3.08;84.39
65637;DHT22;52327;42.622;23.316;2023-02-11T08:18:05;-3.06;82.33
65637;DHT22;52327;42.622;23.316;2023-02-11T08:20:32;-3.12;84.18
65637;DHT22;52327;42.622;23.316;2023-02-11T08:22:58;-2.99;84.70
65637;DHT22;52327;42.622;23.316;2023-02-11T08:25:23;-2.84;83.38
65637;DHT22;52327;42.622;23.316;2023-02-11T08:27:49;-2.85;85.01
65637;DHT22;52327;42.622;23.316;2023-02-11T08:30:14;-2.87;79.75
65637;DHT22;52327;42.622;23.316;2023-02-11T08:32:39;-2.92;82.40
65637;DHT22;52327;42.622;23.316;2023-02-11T08:35:05;-2.89;82.32
65637;DHT22;52327;42.622;23.316;2023-02-11T08:37:33;-2.99;80.96
65637;DHT22;52327;42.622;23.316;2023-02-11T08:39:58;-2.99;83.68
65637;DHT22;52327;42.622;23.316;2023-02-11T08:42:24;-2.85;83.86
65637;DHT22;52327;42.622;23.316;2023-02-11T08:44:49;-2.75;82.59
65637;DHT22;52327;42.622;23.316;2023-02-11T08:47:15;-2.67;79.51
65637;DHT22;52327;42.622;23.316;2023-02-11T08:49:40;-2.87;81.56
65637;DHT22;52327;42.622;23.316;2023-02-11T08:52:07;-2.98;82.56
65637;DHT22;52327;42.622;23.316;2023-02-11T08:54:32;-3.12;81.66
65637;DHT22;52327;42.622;23.316;2023-02-11T08:56:58;-3.08;85.35
65637;DHT22;52327;42.622;23.316;2023-02-11T08:59:24;-2.89;84.92
65637;DHT22;52327;42.622;23.316;2023-02-11T09:01:50;-2.67;83.94
65637;DHT22;52327;42.622;23.316;2023-02-11T09:04:15;-2.63;85.85
65637;DHT22;52327;42.622;23.316;2023-02-11T09:06:40;-2.52;84.35
65637;DHT22;52327;42.622;23.316;2023-02-11T09:09:10;-2.64;81.84
65637;DHT22;52327;42.622;23.316;2023-02-11T09:11:36;-2.80;79.99
65637;DHT22;52327;42.622;23.316;2023-02-11T09:14:02;-2.68;84.01
65637;DHT22;52327;42.622;23.316;2023-02-11T09:16:32;-2.61;82.29
65637;DHT22;52327;42.622;23.316;2023-02-11T09:18:59;-2.50;84.64
65637;DHT22;52327;42.622;23.316;2023-02-11T09:21:26;-2.42;80.11
65637;DHT22;52327;42.622;23.316;2023-02-11T09:23:52;-2.46;78.29
65637;DHT22;52327;42.622;23.316;2023-02-11T09:26:26;-2.34;82.96
65637;DHT22;52327;42.622;23.316;2023-02-11T09:28:52;-2.40;81.67
65637;DHT22;52327;42.622;23.316;2023-02-11T09:31:20;-2.37;85.18
65637;DHT22;52327;42.622;23.316;2023-02-11T09:33:47;-2.06;84.80
65637;DHT22;52327;42.622;23.316;2023-02-11T09:36:16;-1.92;82.25
65637;DHT22;52327;42.622;23.316;2023-02-11T09:38:42;-1.78;83.54
65637;DHT22;52327;42.622;23.316;2023-02-11T09:41:32;-1.60;80.90
65637;DHT22;52327;42.622;23.316;2023-02-11T09:44:03;-1.57;82.91
65637;DHT22;52327;42.622;23.316;2023-02-11T09:46:34;-1.60;82.23
65637;DHT22;52327;42.622;23.316;2023-02-11T09:49:01;-1.75;79.99
65637;DHT22;52327;42.622;23.316;2023-02-11T09:51:40;-1.61;82.57
65637;DHT22;52327;42.622;23.316;2023-02-11T09:54:22;-1.91;80.34
65637;DHT22;52327;42.622;23.316;2023-02-11T09:56:50;-1.85;81.07
65637;DHT22;52327;42.622;23.316;2023-02-11T09:59:15;-1.78;77.09
65637;DHT22;52327;42.622;23.316;2023-02-11T10:01:49;-1.75;80.04
65637;DHT22;52327;42.622;23.316;2023-02-11T10:07:02;-1.64;82.82
65637;DHT22;52327;42.622;23.316;2023-02-11T10:09:44;-1.67;84.13
65637;DHT22;52327;42.622;23.316;2023-02-11T10:20:33;-0.97;82.98
65637;DHT22;52327;42.622;23.316;2023-02-11T10:23:08;-1.24;81.62
65637;DHT22;52327;42.622;23.316;2023-02-11T10:25:38;-1.03;83.58
65637;DHT22;52327;42.622;23.316;2023-02-11T10:28:11;-0.85;82.55
65637;DHT22;52327;42.622;23.316;2023-02-11T10:30:42;-0.93;77.27
65637;DHT22;52327;42.622;23.316;2023-02-11T10:33:39;-1.13;77.98
65637;DHT22;52327;42.622;23.316;2023-02-11T10:36:09;-0.90;82.77
65637;DHT22;52327;42.622;23.316;2023-02-11T10:38:35;-0.88;82.69
65637;DHT22;52327;42.622;23.316;2023-02-11T10:41:01;-0.52;82.66
65637;DHT22;52327;42.622;23.316;2023-02-11T10:43:28;-0.45;80.24
65637;DHT22;52327;42.622;23.316;2023-02-11T10:45:55;-0.44;81.83
65637;DHT22;52327;42.622;23.316;2023-02-11T10:48:44;-0.49;80.77
65637;DHT22;52327;42.622;23.316;2023-02-11T10:51:25;-0.66;78.00
65637;DHT22;52327;42.622;23.316;2023-02-11T10:56:37;-0.41;76.61
65637;DHT22;52327;42.622;23.316;2023-02-11T10:59:04;-0.92;80.92
65637;DHT22;52327;42.622;23.316;2023-02-11T11:01:56;-0.76;84.16
65637;DHT22;52327;42.622;23.316;2023-02-11T11:04:41;-0.66;79.73
65637;DHT22;52327;42.622;23.316;2023-02-11T11:07:11;-0.68;76.21
65637;DHT22;52327;42.622;23.316;2023-02-11T11:10:03;-0.47;78.51
65637;DHT22;52327;42.622;23.316;2023-02-11T11:17:47;-0.25;80.89
65637;DHT22;52327;42.622;23.316;2023-02-11T11:20:21;-0.17;81.69
65637;DHT22;52327;42.622;23.316;2023-02-11T11:22:51;0.03;82.28
65637;DHT22;52327;42.622;23.316;2023-02-11T11:25:26;0.13;80.88
65637;DHT22;52327;42.622;23.316;2023-02-11T11:27:57;-0.07;73.93
65637;DHT22;52327;42.622;23.316;2023-02-11T11:30:29;0.06;79.02
65637;DHT22;52327;42.622;23.316;2023-02-11T11:32:57;0.13;80.02
65637;DHT22;52327;42.622;23.316;2023-02-11T11:35:28;0.33;82.13
65637;DHT22;52327;42.622;23.316;2023-02-11T11:38:00;0.53;81.92
65637;DHT22;52327;42.622;23.316;2023-02-11T11:40:31;0.53;79.85
65637;DHT22;52327;42.622;23.316;2023-02-11T11:45:37;0.44;77.67
65637;DHT22;52327;42.622;23.316;2023-02-11T11:48:15;0.28;78.49
65637;DHT22;52327;42.622;23.316;2023-02-11T11:50:51;0.24;81.87
65637;DHT22;52327;42.622;23.316;2023-02-11T11:53:30;0.34;79.10
65637;DHT22;52327;42.622;23.316;2023-02-11T11:56:18;0.55;81.38
65637;DHT22;52327;42.622;23.316;2023-02-11T11:58:44;0.68;78.36
65637;DHT22;52327;42.622;23.316;2023-02-11T12:06:44;0.74;76.56
65637;DHT22;52327;42.622;23.316;2023-02-11T12:09:32;0.91;79.52
65637;DHT22;52327;42.622;23.316;2023-02-11T12:17:41;1.25;79.31
65637;DHT22;52327;42.622;23.316;2023-02-11T12:29:02;0.92;72.73
65637;DHT22;52327;42.622;23.316;2023-02-11T12:39:42;0.98;70.60
65637;DHT22;52327;42.622;23.316;2023-02-11T12:45:37;0.71;75.15
65637;DHT22;52327;42.622;23.316;2023-02-11T12:57:06;1.30;75.17
65637;DHT22;52327;42.622;23.316;2023-02-11T13:02:16;1.46;75.64
65637;DHT22;52327;42.622;23.316;2023-02-11T13:04:47;1.43;75.40
65637;DHT22;52327;42.622;23.316;2023-02-11T13:07:19;1.29;72.00
65637;DHT22;52327;42.622;23.316;2023-02-11T13:10:00;1.05;70.09
65637;DHT22;52327;42.622;23.316;2023-02-11T13:12:34;1.12;78.43
65637;DHT22;52327;42.622;23.316;2023-02-11T13:15:19;1.09;73.38
65637;DHT22;52327;42.622;23.316;2023-02-11T13:21:41;1.63;70.29
65637;DHT22;52327;42.622;23.316;2023-02-11T13:26:44;1.51;70.57
65637;DHT22;52327;42.622;23.316;2023-02-11T13:31:55;1.61;67.25
65637;DHT22;52327;42.622;23.316;2023-02-11T13:37:36;1.17;71.88
65637;DHT22;52327;42.622;23.316;2023-02-11T13:40:06;1.06;73.41
65637;DHT22;52327;42.622;23.316;2023-02-11T13:42:33;1.15;74.44
65637;DHT22;52327;42.622;23.316;2023-02-11T13:47:47;1.70;68.62
65637;DHT22;52327;42.622;23.316;2023-02-11T13:50:23;1.74;73.16
65637;DHT22;52327;42.622;23.316;2023-02-11T13:52:59;1.77;74.20
65637;DHT22;52327;42.622;23.316;2023-02-11T13:55:25;1.85;76.19
65637;DHT22;52327;42.622;23.316;2023-02-11T14:14:22;1.42;73.05
65637;DHT22;52327;42.622;23.316;2023-02-11T14:19:41;1.02;70.62
65637;DHT22;52327;42.622;23.316;2023-02-11T14:22:17;0.95;71.44
65637;DHT22;52327;42.622;23.316;2023-02-11T14:25:03;0.92;70.56
65637;DHT22;52327;42.622;23.316;2023-02-11T14:27:41;0.82;70.20
65637;DHT22;52327;42.622;23.316;2023-02-11T14:30:33;0.50;69.96
65637;DHT22;52327;42.622;23.316;2023-02-11T14:33:17;0.16;74.95
65637;DHT22;52327;42.622;23.316;2023-02-11T14:36:03;0.14;66.32
65637;DHT22;52327;42.622;23.316;2023-02-11T14:38:48;0.20;71.32
65637;DHT22;52327;42.622;23.316;2023-02-11T14:41:28;0.09;68.92
65637;DHT22;52327;42.622;23.316;2023-02-11T14:43:58;0.04;71.80
65637;DHT22;52327;42.622;23.316;2023-02-11T14:46:25;0.07;67.47
65637;DHT22;52327;42.622;23.316;2023-02-11T14:48:57;0.13;65.93
65637;DHT22;52327;42.622;23.316;2023-02-11T14:51:26;0.10;69.29
65637;DHT22;52327;42.622;23.316;2023-02-11T14:53:57;-0.03;69.12
65637;DHT22;52327;42.622;23.316;2023-02-11T14:56:28;-0.13;73.79
65637;DHT22;52327;42.622;23.316;2023-02-11T14:58:55;-0.28;76.19
65637;DHT22;52327;42.622;23.316;2023-02-11T15:01:32;-0.35;70.99
65637;DHT22;52327;42.622;23.316;2023-02-11T15:04:01;-0.45;74.68
65637;DHT22;52327;42.622;23.316;2023-02-11T15:11:23;-0.69;77.27
65637;DHT22;52327;42.622;23.316;2023-02-11T15:13:50;-1.03;77.20
65637;DHT22;52327;42.622;23.316;2023-02-11T15:16:19;-1.30;78.41
65637;DHT22;52327;42.622;23.316;2023-02-11T15:18:54;-1.16;76.69
65637;DHT22;52327;42.622;23.316;2023-02-11T15:21:26;-1.19;78.14
65637;DHT22;52327;42.622;23.316;2023-02-11T15:24:00;-1.14;75.07
65637;DHT22;52327;42.622;23.316;2023-02-11T15:26:28;-1.13;76.18
65637;DHT22;52327;42.622;23.316;2023-02-11T15:28:54;-1.14;73.71
65637;DHT22;52327;42.622;23.316;2023-02-11T15:31:22;-0.96;70.97
65637;DHT22;52327;42.622;23.316;2023-02-11T15:33:52;-1.03;71.50
65637;DHT22;52327;42.622;23.316;2023-02-11T15:36:21;-1.16;75.69
65637;DHT22;52327;42.622;23.316;2023-02-11T15:39:14;-1.24;68.52
65637;DHT22;52327;42.622;23.316;2023-02-11T15:41:40;-1.36;75.23
65637;DHT22;52327;42.622;23.316;2023-02-11T15:44:26;-1.44;76.51
65637;DHT22;52327;42.622;23.316;2023-02-11T15:46:52;-1.40;75.93
65637;DHT22;52327;42.622;23.316;2023-02-11T15:49:17;-1.65;76.14
65637;DHT22;52327;42.622;23.316;2023-02-11T15:51:44;-1.71;74.83
65637;DHT22;52327;42.622;23.316;2023-02-11T15:54:19;-1.71;74.34
65637;DHT22;52327;42.622;23.316;2023-02-11T15:56:48;-1.64;71.80
65637;DHT22;52327;42.622;23.316;2023-02-11T15:59:19;-1.68;74.55
65637;DHT22;52327;42.622;23.316;2023-02-11T16:01:49;-1.74;76.76
65637;DHT22;52327;42.622;23.316;2023-02-11T16:04:15;-1.86;74.29
65637;DHT22;52327;42.622;23.316;2023-02-11T16:06:42;-1.91;75.75
65637;DHT22;52327;42.622;23.316;2023-02-11T16:11:56;-2.10;73.63
65637;DHT22;52327;42.622;23.316;2023-02-11T16:14:30;-2.03;72.95
65637;DHT22;52327;42.622;23.316;2023-02-11T16:19:49;-2.03;68.75
65637;DHT22;52327;42.622;23.316;2023-02-11T16:22:23;-1.95;68.53
65637;DHT22;52327;42.622;23.316;2023-02-11T16:24:52;-1.88;65.97
65637;DHT22;52327;42.622;23.316;2023-02-11T16:36:55;-2.33;72.43
65637;DHT22;52327;42.622;23.316;2023-02-11T16:42:28;-2.40;72.59
65637;DHT22;52327;42.622;23.316;2023-02-11T16:44:53;-2.60;70.68
65637;DHT22;52327;42.622;23.316;2023-02-11T16:47:24;-2.64;75.83
65637;DHT22;52327;42.622;23.316;2023-02-11T16:49:50;-2.71;75.11
65637;DHT22;52327;42.622;23.316;2023-02-11T16:52:17;-2.71;72.00
65637;DHT22;52327;42.622;23.316;2023-02-11T16:54:44;-2.70;72.74
65637;DHT22;52327;42.622;23.316;2023-02-11T16:57:14;-2.67;73.28
65637;DHT22;52327;42.622;23.316;2023-02-11T16:59:45;-2.70;73.06
65637;DHT22;52327;42.622;23.316;2023-02-11T17:02:28;-2.65;67.59
65637;DHT22;52327;42.622;23.316;2023-02-11T17:04:57;-2.63;73.38
65637;DHT22;52327;42.622;23.316;2023-02-11T17:07:22;-2.52;69.11
65637;DHT22;52327;42.622;23.316;2023-02-11T17:09:48;-2.30;66.75
65637;DHT22;52327;42.622;23.316;2023-02-11T17:12:13;-1.81;62.63
65637;DHT22;52327;42.622;23.316;2023-02-11T17:14:39;-1.51;56.70
65637;DHT22;52327;42.622;23.316;2023-02-11T17:17:08;-1.30;63.46
65637;DHT22;52327;42.622;23.316;2023-02-11T17:19:37;-1.33;63.16
65637;DHT22;52327;42.622;23.316;2023-02-11T17:22:03;-1.37;61.19
65637;DHT22;52327;42.622;23.316;2023-02-11T17:24:29;-1.29;54.59
65637;DHT22;52327;42.622;23.316;2023-02-11T17:26:54;-1.16;51.75
65637;DHT22;52327;42.622;23.316;2023-02-11T17:29:22;-0.96;54.02
65637;DHT22;52327;42.622;23.316;2023-02-11T17:31:48;-0.70;49.10
65637;DHT22;52327;42.622;23.316;2023-02-11T17:34:16;-0.58;49.06
65637;DHT22;52327;42.622;23.316;2023-02-11T17:36:41;-0.51;48.90
65637;DHT22;52327;42.622;23.316;2023-02-11T17:39:07;-0.45;53.12
65637;DHT22;52327;42.622;23.316;2023-02-11T17:41:32;-0.34;49.22
65637;DHT22;52327;42.622;23.316;2023-02-11T17:43:59;-0.22;53.17
65637;DHT22;52327;42.622;23.316;2023-02-11T17:46:25;-0.34;51.86
65637;DHT22;52327;42.622;23.316;2023-02-11T17:48:53;-0.41;56.67
65637;DHT22;52327;42.622;23.316;2023-02-11T17:51:25;-0.49;58.84
65637;DHT22;52327;42.622;23.316;2023-02-11T17:53:52;-0.65;54.61
65637;DHT22;52327;42.622;23.316;2023-02-11T17:56:18;-0.48;49.05
65637;DHT22;52327;42.622;23.316;2023-02-11T17:58:43;-0.14;45.41
65637;DHT22;52327;42.622;23.316;2023-02-11T18:01:09;0.11;45.76
65637;DHT22;52327;42.622;23.316;2023-02-11T18:03:35;0.31;44.95
65637;DHT22;52327;42.622;23.316;2023-02-11T18:06:01;0.23;45.89
65637;DHT22;52327;42.622;23.316;2023-02-11T18:08:27;0.33;47.28
65637;DHT22;52327;42.622;23.316;2023-02-11T18:10:53;0.30;45.25
65637;DHT22;52327;42.622;23.316;2023-02-11T18:13:18;0.24;49.39
65637;DHT22;52327;42.622;23.316;2023-02-11T18:15:44;0.36;47.58
65637;DHT22;52327;42.622;23.316;2023-02-11T18:18:09;0.33;44.79
65637;DHT22;52327;42.622;23.316;2023-02-11T18:20:35;0.37;50.79
65637;DHT22;52327;42.622;23.316;2023-02-11T18:23:01;0.30;52.00
65637;DHT22;52327;42.622;23.316;2023-02-11T18:25:27;0.24;48.80
65637;DHT22;52327;42.622;23.316;2023-02-11T18:27:54;0.23;47.88
65637;DHT22;52327;42.622;23.316;2023-02-11T18:30:19;0.17;47.16
65637;DHT22;52327;42.622;23.316;2023-02-11T18:32:46;0.16;49.82
65637;DHT22;52327;42.622;23.316;2023-02-11T18:35:12;0.23;50.68
65637;DHT22;52327;42.622;23.316;2023-02-11T18:37:40;0.28;49.55
65637;DHT22;52327;42.622;23.316;2023-02-11T18:40:07;0.09;47.54
65637;DHT22;52327;42.622;23.316;2023-02-11T18:42:33;0.10;49.57
65637;DHT22;52327;42.622;23.316;2023-02-11T18:44:59;0.03;48.21
65637;DHT22;52327;42.622;23.316;2023-02-11T18:47:24;0.16;50.14